sensor_id;sensor_type;location;lat;lon;timestamp;temperature;humidity
22795;DHT22;11564;50.920;11.612;2023-06-04T00:00:00;6.50;99.90
22795;DHT22;11564;50.920;11.612;2023-06-04T00:02:26;6.50;99.90
22795;DHT22;11564;50.920;11.612;2023-06-04T00:04:51;6.40;99.90
22795;DHT22;11564;50.920;11.612;2023-06-04T00:07:17;6.50;99.90
22795;DHT22;11564;50.920;11.612;2023-06-04T00:09:43;6.40;99.90
22795;DHT22;11564;50.920;11.612;2023-06-04T00:12:10;6.40;99.90
22795;DHT22;11564;50.920;11.612;2023-06-04T00:14:36;6.40;99.90
22795;DHT22;11564;50.920;11.612;2023-06-04T00:17:01;6.40;99.90
22795;DHT22;11564;50.920;11.612;2023-06-04T00:19:27;6.30;99.90
22795;DHT22;11564;50.920;11.612;2023-06-04T00:21:53;6.40;99.90
22795;DHT22;11564;50.920;11.612;2023-06-04T00:24:18;6.30;99.90
22795;DHT22;11564;50.920;11.612;2023-06-04T00:26:44;6.30;99.90
22795;DHT22;11564;50.920;11.612;2023-06-04T00:29:10;6.30;99.90
22795;DHT22;11564;50.920;11.612;2023-06-04T00:31:35;6.30;99.90
22795;DHT22;11564;50.920;11.612;2023-06-04T00:34:03;6.20;99.90
22795;DHT22;11564;50.920;11.612;2023-06-04T00:36:29;6.20;99.90
22795;DHT22;11564;50.920;11.612;2023-06-04T00:38:54;6.20;99.90
22795;DHT22;11564;50.920;11.612;2023-06-04T00:41:20;6.10;99.90
22795;DHT22;11564;50.920;11.612;2023-06-04T00:43:46;6.10;99.90
22795;DHT22;11564;50.920;11.612;2023-06-04T00:46:27;6.00;99.90
22795;DHT22;11564;50.920;11.612;2023-06-04T00:48:53;6.00;99.90
22795;DHT22;11564;50.920;11.612;2023-06-04T00:51:20;5.90;99.90
22795;DHT22;11564;50.920;11.612;2023-06-04T00:53:48;5.90;99.90
22795;DHT22;11564;50.920;11.612;2023-06-04T00:56:13;5.90;99.90
22795;DHT22;11564;50.920;11.612;2023-06-04T00:58:39;5.80;99.90
22795;DHT22;11564;50.920;11.612;2023-06-04T01:01:10;5.80;99.90
22795;DHT22;11564;50.920;11.612;2023-06-04T01:03:39;5.80;99.90
22795;DHT22;11564;50.920;11.612;2023-06-04T01:08:32;5.70;99.90
22795;DHT22;11564;50.920;11.612;2023-06-04T01:10:58;5.60;99.90
22795;DHT22;11564;50.920;11.612;2023-06-04T01:13:24;5.60;99.90
22795;DHT22;11564;50.920;11.612;2023-06-04T01:15:50;5.60;99.90
22795;DHT22;11564;50.920;11.612;2023-06-04T01:18:21;5.60;99.90
22795;DHT22;11564;50.920;11.612;2023-06-04T01:21:14;5.50;99.90
22795;DHT22;11564;50.920;11.612;2023-06-04T01:23:51;5.40;99.90
22795;DHT22;11564;50.920;11.612;2023-06-04T01:26:27;5.40;99.90
22795;DHT22;11564;50.920;11.612;2023-06-04T01:28:55;5.30;99.90
22795;DHT22;11564;50.920;11.612;2023-06-04T01:31:23;5.30;99.90
22795;DHT22;11564;50.920;11.612;2023-06-04T01:33:56;5.30;99.90
22795;DHT22;11564;50.920;11.612;2023-06-04T01:36:23;5.30;99.90
22795;DHT22;11564;50.920;11.612;2023-06-04T01:38:50;5.20;99.90
22795;DHT22;11564;50.920;11.612;2023-06-04T01:41:16;5.20;99.90
22795;DHT22;11564;50.920;11.612;2023-06-04T01:43:42;5.20;99.90
22795;DHT22;11564;50.920;11.612;2023-06-04T01:46:07;5.10;99.90
22795;DHT22;11564;50.920;11.612;2023-06-04T01:48:33;5.10;99.90
22795;DHT22;11564;50.920;11.612;2023-06-04T01:50:59;5.00;99.90
22795;DHT22;11564;50.920;11.612;2023-06-04T01:53:26;5.00;99.90
22795;DHT22;11564;50.920;11.612;2023-06-04T01:55:51;4.90;99.90
22795;DHT22;11564;50.920;11.612;2023-06-04T01:58:18;4.90;99.90
22795;DHT22;11564;50.920;11.612;2023-06-04T02:00:52;4.90;99.90
22795;DHT22;11564;50.920;11.612;2023-06-04T02:03:18;4.80;99.90
22795;DHT22;11564;50.920;11.612;2023-06-04T02:05:44;4.80;99.90
22795;DHT22;11564;50.920;11.612;2023-06-04T02:08:14;4.80;99.90
22795;DHT22;11564;50.920;11.612;2023-06-04T02:10:46;4.80;99.90
22795;DHT22;11564;50.920;11.612;2023-06-04T02:13:12;4.80;99.90
22795;DHT22;11564;50.920;11.612;2023-06-04T02:15:38;4.80;99.90
22795;DHT22;11564;50.920;11.612;2023-06-04T02:18:18;4.80;99.90
22795;DHT22;11564;50.920;11.612;2023-06-04T02:20:47;4.70;99.90
22795;DHT22;11564;50.920;11.612;2023-06-04T02:23:14;4.70;99.90
22795;DHT22;11564;50.920;11.612;2023-06-04T02:25:40;4.70;99.90
22795;DHT22;11564;50.920;11.612;2023-06-04T02:28:06;4.60;99.90
22795;DHT22;11564;50.920;11.612;2023-06-04T02:30:32;4.60;99.90
22795;DHT22;11564;50.920;11.612;2023-06-04T02:32:58;4.50;99.90
22795;DHT22;11564;50.920;11.612;2023-06-04T02:35:29;4.50;99.90
22795;DHT22;11564;50.920;11.612;2023-06-04T02:37:55;4.40;99.90
22795;DHT22;11564;50.920;11.612;2023-06-04T02:40:27;4.40;99.90
22795;DHT22;11564;50.920;11.612;2023-06-04T02:42:53;4.40;99.90
22795;DHT22;11564;50.920;11.612;2023-06-04T02:45:19;4.40;99.90
22795;DHT22;11564;50.920;11.612;2023-06-04T02:47:45;4.40;99.90
22795;DHT22;11564;50.920;11.612;2023-06-04T02:50:12;4.30;99.90
22795;DHT22;11564;50.920;11.612;2023-06-04T02:52:38;4.30;99.90
22795;DHT22;11564;50.920;11.612;2023-06-04T02:55:06;4.20;99.90
22795;DHT22;11564;50.920;11.612;2023-06-04T02:57:32;4.20;99.90
22795;DHT22;11564;50.920;11.612;2023-06-04T02:59:59;4.20;99.90
22795;DHT22;11564;50.920;11.612;2023-06-04T03:02:25;4.20;99.90
22795;DHT22;11564;50.920;11.612;2023-06-04T03:04:51;4.20;99.90
22795;DHT22;11564;50.920;11.612;2023-06-04T03:07:17;4.10;99.90
22795;DHT22;11564;50.920;11.612;2023-06-04T03:09:48;4.10;99.90
22795;DHT22;11564;50.920;11.612;2023-06-04T03:12:14;4.10;99.90
22795;DHT22;11564;50.920;11.612;2023-06-04T03:14:39;4.10;99.90
22795;DHT22;11564;50.920;11.612;2023-06-04T03:17:05;4.10;99.90
22795;DHT22;11564;50.920;11.612;2023-06-04T03:19:40;4.10;99.90
22795;DHT22;11564;50.920;11.612;2023-06-04T03:22:07;4.10;99.90
22795;DHT22;11564;50.920;11.612;2023-06-04T03:24:39;4.10;99.90
22795;DHT22;11564;50.920;11.612;2023-06-04T03:27:05;4.10;99.90
22795;DHT22;11564;50.920;11.612;2023-06-04T03:29:32;4.10;99.90
22795;DHT22;11564;50.920;11.612;2023-06-04T03:31:58;4.10;99.90
22795;DHT22;11564;50.920;11.612;2023-06-04T03:34:23;4.10;99.90
22795;DHT22;11564;50.920;11.612;2023-06-04T03:36:51;4.20;99.90
22795;DHT22;11564;50.920;11.612;2023-06-04T03:39:17;4.10;99.90
22795;DHT22;11564;50.920;11.612;2023-06-04T03:41:43;4.10;99.90
22795;DHT22;11564;50.920;11.612;2023-06-04T03:44:08;4.20;99.90
22795;DHT22;11564;50.920;11.612;2023-06-04T03:46:34;4.10;99.90
22795;DHT22;11564;50.920;11.612;2023-06-04T03:49:01;4.20;99.90
22795;DHT22;11564;50.920;11.612;2023-06-04T03:51:27;4.20;99.90
22795;DHT22;11564;50.920;11.612;2023-06-04T03:53:52;4.30;99.90
22795;DHT22;11564;50.920;11.612;2023-06-04T03:56:18;4.30;99.90
22795;DHT22;11564;50.920;11.612;2023-06-04T03:58:44;4.30;99.90
22795;DHT22;11564;50.920;11.612;2023-06-04T04:01:10;4.30;99.90
22795;DHT22;11564;50.920;11.612;2023-06-04T04:03:38;4.40;99.90
22795;DHT22;11564;50.920;11.612;2023-06-04T04:06:04;4.40;99.90
22795;DHT22;11564;50.920;11.612;2023-06-04T04:08:29;4.40;99.90
22795;DHT22;11564;50.920;11.612;2023-06-04T04:10:57;4.40;99.90
22795;DHT22;11564;50.920;11.612;2023-06-04T04:13:22;4.50;99.90
22795;DHT22;11564;50.920;11.612;2023-06-04T04:15:48;4.50;99.90
22795;DHT22;11564;50.920;11.612;2023-06-04T04:18:18;4.50;99.90
22795;DHT22;11564;50.920;11.612;2023-06-04T04:20:45;4.60;99.90
22795;DHT22;11564;50.920;11.612;2023-06-04T04:23:11;4.70;99.90
22795;DHT22;11564;50.920;11.612;2023-06-04T04:25:37;4.70;99.90
22795;DHT22;11564;50.920;11.612;2023-06-04T04:28:04;4.70;99.90
22795;DHT22;11564;50.920;11.612;2023-06-04T04:30:34;4.80;99.90
22795;DHT22;11564;50.920;11.612;2023-06-04T04:33:00;4.80;99.90
22795;DHT22;11564;50.920;11.612;2023-06-04T04:35:26;4.80;99.90
22795;DHT22;11564;50.920;11.612;2023-06-04T04:37:52;4.90;99.90
22795;DHT22;11564;50.920;11.612;2023-06-04T04:40:18;4.90;99.90
22795;DHT22;11564;50.920;11.612;2023-06-04T04:42:43;5.00;99.90
22795;DHT22;11564;50.920;11.612;2023-06-04T04:45:09;5.00;99.90
22795;DHT22;11564;50.920;11.612;2023-06-04T04:47:35;5.10;99.90
22795;DHT22;11564;50.920;11.612;2023-06-04T04:50:00;5.20;99.90
22795;DHT22;11564;50.920;11.612;2023-06-04T04:52:26;5.20;99.90
22795;DHT22;11564;50.920;11.612;2023-06-04T04:54:52;5.30;99.90
22795;DHT22;11564;50.920;11.612;2023-06-04T04:57:22;5.40;99.90
22795;DHT22;11564;50.920;11.612;2023-06-04T04:59:48;5.50;99.90
22795;DHT22;11564;50.920;11.612;2023-06-04T05:02:14;5.60;99.90
22795;DHT22;11564;50.920;11.612;2023-06-04T05:04:40;5.70;99.90
22795;DHT22;11564;50.920;11.612;2023-06-04T05:07:07;5.80;99.90
22795;DHT22;11564;50.920;11.612;2023-06-04T05:09:32;5.90;99.90
22795;DHT22;11564;50.920;11.612;2023-06-04T05:11:58;6.00;99.90
22795;DHT22;11564;50.920;11.612;2023-06-04T05:14:23;6.20;99.90
22795;DHT22;11564;50.920;11.612;2023-06-04T05:16:49;6.30;99.90
22795;DHT22;11564;50.920;11.612;2023-06-04T05:19:18;6.40;99.90
22795;DHT22;11564;50.920;11.612;2023-06-04T05:21:44;6.50;99.90
22795;DHT22;11564;50.920;11.612;2023-06-04T05:24:09;6.60;99.90
22795;DHT22;11564;50.920;11.612;2023-06-04T05:26:36;6.70;99.90
22795;DHT22;11564;50.920;11.612;2023-06-04T05:29:02;6.90;99.90
22795;DHT22;11564;50.920;11.612;2023-06-04T05:31:29;7.00;99.90
22795;DHT22;11564;50.920;11.612;2023-06-04T05:34:01;7.20;99.90
22795;DHT22;11564;50.920;11.612;2023-06-04T05:36:30;7.30;99.90
22795;DHT22;11564;50.920;11.612;2023-06-04T05:38:56;7.40;99.90
22795;DHT22;11564;50.920;11.612;2023-06-04T05:41:25;7.60;99.90
22795;DHT22;11564;50.920;11.612;2023-06-04T05:43:51;7.70;99.90
22795;DHT22;11564;50.920;11.612;2023-06-04T05:46:17;7.80;99.90
22795;DHT22;11564;50.920;11.612;2023-06-04T05:48:43;7.90;99.90
22795;DHT22;11564;50.920;11.612;2023-06-04T05:51:08;8.00;99.90
22795;DHT22;11564;50.920;11.612;2023-06-04T05:53:34;8.20;99.90
22795;DHT22;11564;50.920;11.612;2023-06-04T05:56:00;8.30;99.90
22795;DHT22;11564;50.920;11.612;2023-06-04T05:58:25;8.40;99.90
22795;DHT22;11564;50.920;11.612;2023-06-04T06:00:51;8.50;99.90
22795;DHT22;11564;50.920;11.612;2023-06-04T06:03:17;8.60;99.90
22795;DHT22;11564;50.920;11.612;2023-06-04T06:05:43;8.60;99.90
22795;DHT22;11564;50.920;11.612;2023-06-04T06:08:08;8.70;99.90
22795;DHT22;11564;50.920;11.612;2023-06-04T06:10:34;8.90;99.90
22795;DHT22;11564;50.920;11.612;2023-06-04T06:13:00;9.10;99.90
22795;DHT22;11564;50.920;11.612;2023-06-04T06:15:26;9.20;99.90
22795;DHT22;11564;50.920;11.612;2023-06-04T06:17:52;9.30;99.90
22795;DHT22;11564;50.920;11.612;2023-06-04T06:20:18;9.60;99.90
22795;DHT22;11564;50.920;11.612;2023-06-04T06:22:44;9.70;99.90
22795;DHT22;11564;50.920;11.612;2023-06-04T06:25:10;9.90;99.90
22795;DHT22;11564;50.920;11.612;2023-06-04T06:27:39;10.00;99.90
22795;DHT22;11564;50.920;11.612;2023-06-04T06:30:06;10.20;99.90
22795;DHT22;11564;50.920;11.612;2023-06-04T06:32:32;10.30;99.90
22795;DHT22;11564;50.920;11.612;2023-06-04T06:34:57;10.40;99.90
22795;DHT22;11564;50.920;11.612;2023-06-04T06:37:23;10.50;99.90
22795;DHT22;11564;50.920;11.612;2023-06-04T06:39:48;10.60;99.90
22795;DHT22;11564;50.920;11.612;2023-06-04T06:42:14;10.80;99.90
22795;DHT22;11564;50.920;11.612;2023-06-04T06:44:43;10.90;99.90
22795;DHT22;11564;50.920;11.612;2023-06-04T06:47:09;11.10;99.90
22795;DHT22;11564;50.920;11.612;2023-06-04T06:49:42;11.20;99.00
22795;DHT22;11564;50.920;11.612;2023-06-04T06:52:08;11.40;98.00
22795;DHT22;11564;50.920;11.612;2023-06-04T06:54:33;11.60;98.10
22795;DHT22;11564;50.920;11.612;2023-06-04T06:56:59;11.80;97.50
22795;DHT22;11564;50.920;11.612;2023-06-04T06:59:25;11.90;96.90
22795;DHT22;11564;50.920;11.612;2023-06-04T07:01:51;12.00;97.10
22795;DHT22;11564;50.920;11.612;2023-06-04T07:04:16;12.30;95.70
22795;DHT22;11564;50.920;11.612;2023-06-04T07:06:43;12.40;94.90
22795;DHT22;11564;50.920;11.612;2023-06-04T07:09:09;12.70;95.20
22795;DHT22;11564;50.920;11.612;2023-06-04T07:11:35;12.80;94.10
22795;DHT22;11564;50.920;11.612;2023-06-04T07:14:00;13.00;93.60
22795;DHT22;11564;50.920;11.612;2023-06-04T07:16:28;13.20;93.60
22795;DHT22;11564;50.920;11.612;2023-06-04T07:18:54;13.30;92.60
22795;DHT22;11564;50.920;11.612;2023-06-04T07:21:19;13.50;92.10
22795;DHT22;11564;50.920;11.612;2023-06-04T07:23:47;13.70;90.80
22795;DHT22;11564;50.920;11.612;2023-06-04T07:26:15;13.80;90.20
22795;DHT22;11564;50.920;11.612;2023-06-04T07:28:41;13.90;90.70
22795;DHT22;11564;50.920;11.612;2023-06-04T07:31:07;14.00;90.30
22795;DHT22;11564;50.920;11.612;2023-06-04T07:33:32;14.20;89.60
22795;DHT22;11564;50.920;11.612;2023-06-04T07:35:58;14.40;87.80
22795;DHT22;11564;50.920;11.612;2023-06-04T07:38:24;14.50;87.50
22795;DHT22;11564;50.920;11.612;2023-06-04T07:40:50;14.70;87.80
22795;DHT22;11564;50.920;11.612;2023-06-04T07:43:16;14.80;87.40
22795;DHT22;11564;50.920;11.612;2023-06-04T07:45:41;15.00;85.90
22795;DHT22;11564;50.920;11.612;2023-06-04T07:48:09;15.10;85.10
22795;DHT22;11564;50.920;11.612;2023-06-04T07:50:36;15.30;85.00
22795;DHT22;11564;50.920;11.612;2023-06-04T07:53:01;15.40;83.70
22795;DHT22;11564;50.920;11.612;2023-06-04T07:55:27;15.50;82.60
22795;DHT22;11564;50.920;11.612;2023-06-04T07:57:53;15.70;82.80
22795;DHT22;11564;50.920;11.612;2023-06-04T08:00:19;15.80;80.70
22795;DHT22;11564;50.920;11.612;2023-06-04T08:02:45;16.00;79.30
22795;DHT22;11564;50.920;11.612;2023-06-04T08:05:10;16.10;80.90
22795;DHT22;11564;50.920;11.612;2023-06-04T08:07:39;16.10;77.90
22795;DHT22;11564;50.920;11.612;2023-06-04T08:10:05;16.30;78.90
22795;DHT22;11564;50.920;11.612;2023-06-04T08:12:31;16.50;77.00
22795;DHT22;11564;50.920;11.612;2023-06-04T08:14:57;16.70;73.50
22795;DHT22;11564;50.920;11.612;2023-06-04T08:17:23;16.90;73.40
22795;DHT22;11564;50.920;11.612;2023-06-04T08:19:49;17.10;72.30
22795;DHT22;11564;50.920;11.612;2023-06-04T08:22:14;17.30;72.20
22795;DHT22;11564;50.920;11.612;2023-06-04T08:24:41;17.60;69.50
22795;DHT22;11564;50.920;11.612;2023-06-04T08:27:07;17.50;67.00
22795;DHT22;11564;50.920;11.612;2023-06-04T08:29:34;17.60;67.10
22795;DHT22;11564;50.920;11.612;2023-06-04T08:32:01;17.80;66.00
22795;DHT22;11564;50.920;11.612;2023-06-04T08:34:27;17.90;67.20
22795;DHT22;11564;50.920;11.612;2023-06-04T08:36:53;18.10;66.70
22795;DHT22;11564;50.920;11.612;2023-06-04T08:39:19;18.00;65.60
22795;DHT22;11564;50.920;11.612;2023-06-04T08:41:48;18.20;65.30
22795;DHT22;11564;50.920;11.612;2023-06-04T08:44:16;18.30;65.40
22795;DHT22;11564;50.920;11.612;2023-06-04T08:46:43;18.40;64.40
22795;DHT22;11564;50.920;11.612;2023-06-04T08:49:09;18.40;64.10
22795;DHT22;11564;50.920;11.612;2023-06-04T08:51:37;18.50;63.00
22795;DHT22;11564;50.920;11.612;2023-06-04T08:54:07;18.70;63.00
22795;DHT22;11564;50.920;11.612;2023-06-04T08:56:34;18.70;62.20
22795;DHT22;11564;50.920;11.612;2023-06-04T08:59:02;18.80;62.20
22795;DHT22;11564;50.920;11.612;2023-06-04T09:01:31;18.80;60.80
22795;DHT22;11564;50.920;11.612;2023-06-04T09:03:59;18.90;59.70
22795;DHT22;11564;50.920;11.612;2023-06-04T09:06:28;19.00;59.90
22795;DHT22;11564;50.920;11.612;2023-06-04T09:08:56;19.10;57.70
22795;DHT22;11564;50.920;11.612;2023-06-04T09:11:26;19.10;58.70
22795;DHT22;11564;50.920;11.612;2023-06-04T09:13:53;19.20;57.80
22795;DHT22;11564;50.920;11.612;2023-06-04T09:16:21;19.20;58.10
22795;DHT22;11564;50.920;11.612;2023-06-04T09:18:47;19.40;57.70
22795;DHT22;11564;50.920;11.612;2023-06-04T09:21:13;19.50;54.70
22795;DHT22;11564;50.920;11.612;2023-06-04T09:23:45;19.50;56.00
22795;DHT22;11564;50.920;11.612;2023-06-04T09:26:12;19.50;55.80
22795;DHT22;11564;50.920;11.612;2023-06-04T09:28:41;19.60;55.80
22795;DHT22;11564;50.920;11.612;2023-06-04T09:31:14;19.70;56.20
22795;DHT22;11564;50.920;11.612;2023-06-04T09:33:44;19.70;53.20
22795;DHT22;11564;50.920;11.612;2023-06-04T09:36:10;19.70;54.20
22795;DHT22;11564;50.920;11.612;2023-06-04T09:38:36;19.90;55.90
22795;DHT22;11564;50.920;11.612;2023-06-04T09:41:02;19.80;52.60
22795;DHT22;11564;50.920;11.612;2023-06-04T09:43:32;19.80;52.60
22795;DHT22;11564;50.920;11.612;2023-06-04T09:46:14;19.60;52.70
22795;DHT22;11564;50.920;11.612;2023-06-04T09:48:41;19.70;55.50
22795;DHT22;11564;50.920;11.612;2023-06-04T09:51:15;19.80;54.70
22795;DHT22;11564;50.920;11.612;2023-06-04T09:53:41;19.90;54.40
22795;DHT22;11564;50.920;11.612;2023-06-04T09:56:07;20.20;54.80
22795;DHT22;11564;50.920;11.612;2023-06-04T09:58:34;20.30;53.20
22795;DHT22;11564;50.920;11.612;2023-06-04T10:01:04;20.40;53.80
22795;DHT22;11564;50.920;11.612;2023-06-04T10:03:35;20.60;55.80
22795;DHT22;11564;50.920;11.612;2023-06-04T10:06:03;20.80;52.70
22795;DHT22;11564;50.920;11.612;2023-06-04T10:08:30;20.80;51.10
22795;DHT22;11564;50.920;11.612;2023-06-04T10:11:00;20.70;53.90
22795;DHT22;11564;50.920;11.612;2023-06-04T10:13:38;20.90;52.50
22795;DHT22;11564;50.920;11.612;2023-06-04T10:16:07;20.90;52.00
22795;DHT22;11564;50.920;11.612;2023-06-04T10:18:33;21.00;52.90
22795;DHT22;11564;50.920;11.612;2023-06-04T10:21:08;21.10;50.80
22795;DHT22;11564;50.920;11.612;2023-06-04T10:23:35;21.20;55.10
22795;DHT22;11564;50.920;11.612;2023-06-04T10:26:01;21.20;53.50
22795;DHT22;11564;50.920;11.612;2023-06-04T10:28:27;21.20;53.60
22795;DHT22;11564;50.920;11.612;2023-06-04T10:30:53;21.30;53.20
22795;DHT22;11564;50.920;11.612;2023-06-04T10:33:22;21.50;53.40
22795;DHT22;11564;50.920;11.612;2023-06-04T10:35:52;21.50;50.50
22795;DHT22;11564;50.920;11.612;2023-06-04T10:38:18;21.70;51.90
22795;DHT22;11564;50.920;11.612;2023-06-04T10:40:46;21.70;51.60
22795;DHT22;11564;50.920;11.612;2023-06-04T10:43:12;21.80;51.20
22795;DHT22;11564;50.920;11.612;2023-06-04T10:45:39;21.80;52.50
22795;DHT22;11564;50.920;11.612;2023-06-04T10:48:10;21.80;51.80
22795;DHT22;11564;50.920;11.612;2023-06-04T10:50:49;21.80;50.70
22795;DHT22;11564;50.920;11.612;2023-06-04T10:53:15;21.70;50.30
22795;DHT22;11564;50.920;11.612;2023-06-04T10:55:45;22.00;52.00
22795;DHT22;11564;50.920;11.612;2023-06-04T10:58:11;22.10;52.10
22795;DHT22;11564;50.920;11.612;2023-06-04T11:00:38;22.10;51.70
22795;DHT22;11564;50.920;11.612;2023-06-04T11:03:05;22.30;52.80
22795;DHT22;11564;50.920;11.612;2023-06-04T11:05:40;22.50;50.90
22795;DHT22;11564;50.920;11.612;2023-06-04T11:08:08;22.60;48.90
22795;DHT22;11564;50.920;11.612;2023-06-04T11:10:40;22.70;49.80
22795;DHT22;11564;50.920;11.612;2023-06-04T11:13:05;22.80;50.00
22795;DHT22;11564;50.920;11.612;2023-06-04T11:15:42;22.80;50.30
22795;DHT22;11564;50.920;11.612;2023-06-04T11:18:08;22.90;49.40
22795;DHT22;11564;50.920;11.612;2023-06-04T11:20:34;23.10;50.20
22795;DHT22;11564;50.920;11.612;2023-06-04T11:23:00;23.10;47.60
22795;DHT22;11564;50.920;11.612;2023-06-04T11:25:28;23.20;47.90
22795;DHT22;11564;50.920;11.612;2023-06-04T11:27:56;23.30;49.50
22795;DHT22;11564;50.920;11.612;2023-06-04T11:30:22;23.40;47.30
22795;DHT22;11564;50.920;11.612;2023-06-04T11:32:48;23.40;46.60
22795;DHT22;11564;50.920;11.612;2023-06-04T11:35:14;23.10;46.40
22795;DHT22;11564;50.920;11.612;2023-06-04T11:37:40;23.20;47.60
22795;DHT22;11564;50.920;11.612;2023-06-04T11:40:19;23.20;47.00
22795;DHT22;11564;50.920;11.612;2023-06-04T11:42:47;23.40;48.00
22795;DHT22;11564;50.920;11.612;2023-06-04T11:45:14;23.60;47.70
22795;DHT22;11564;50.920;11.612;2023-06-04T11:47:45;23.50;48.50
22795;DHT22;11564;50.920;11.612;2023-06-04T11:50:12;23.20;45.90
22795;DHT22;11564;50.920;11.612;2023-06-04T11:52:38;23.30;48.50
22795;DHT22;11564;50.920;11.612;2023-06-04T11:55:07;23.50;48.80
22795;DHT22;11564;50.920;11.612;2023-06-04T11:57:33;23.70;47.50
22795;DHT22;11564;50.920;11.612;2023-06-04T12:00:00;23.80;48.40
22795;DHT22;11564;50.920;11.612;2023-06-04T12:02:26;24.00;47.10
22795;DHT22;11564;50.920;11.612;2023-06-04T12:04:51;24.10;46.50
22795;DHT22;11564;50.920;11.612;2023-06-04T12:07:21;23.70;46.80
22795;DHT22;11564;50.920;11.612;2023-06-04T12:09:49;23.50;45.00
22795;DHT22;11564;50.920;11.612;2023-06-04T12:12:21;23.50;45.60
22795;DHT22;11564;50.920;11.612;2023-06-04T12:14:59;23.40;45.90
22795;DHT22;11564;50.920;11.612;2023-06-04T12:17:25;23.80;46.50
22795;DHT22;11564;50.920;11.612;2023-06-04T12:19:51;22.90;45.40
22795;DHT22;11564;50.920;11.612;2023-06-04T12:22:18;23.30;50.50
22795;DHT22;11564;50.920;11.612;2023-06-04T12:24:48;23.80;47.40
22795;DHT22;11564;50.920;11.612;2023-06-04T12:27:14;24.20;48.00
22795;DHT22;11564;50.920;11.612;2023-06-04T12:29:40;24.40;47.60
22795;DHT22;11564;50.920;11.612;2023-06-04T12:32:07;24.70;46.30
22795;DHT22;11564;50.920;11.612;2023-06-04T12:34:43;24.90;46.60
22795;DHT22;11564;50.920;11.612;2023-06-04T12:37:09;24.90;45.80
22795;DHT22;11564;50.920;11.612;2023-06-04T12:39:35;24.90;44.00
22795;DHT22;11564;50.920;11.612;2023-06-04T12:42:06;25.20;45.40
22795;DHT22;11564;50.920;11.612;2023-06-04T12:44:32;25.10;44.20
22795;DHT22;11564;50.920;11.612;2023-06-04T12:46:58;25.10;44.50
22795;DHT22;11564;50.920;11.612;2023-06-04T12:49:24;25.30;45.30
22795;DHT22;11564;50.920;11.612;2023-06-04T12:51:49;25.50;44.00
22795;DHT22;11564;50.920;11.612;2023-06-04T12:54:15;25.60;43.50
22795;DHT22;11564;50.920;11.612;2023-06-04T12:56:41;25.50;43.10
22795;DHT22;11564;50.920;11.612;2023-06-04T12:59:08;25.30;42.80
22795;DHT22;11564;50.920;11.612;2023-06-04T13:01:34;25.30;42.00
22795;DHT22;11564;50.920;11.612;2023-06-04T13:04:00;25.20;43.90
22795;DHT22;11564;50.920;11.612;2023-06-04T13:06:25;25.40;43.30
22795;DHT22;11564;50.920;11.612;2023-06-04T13:08:51;26.00;43.80
22795;DHT22;11564;50.920;11.612;2023-06-04T13:11:17;26.50;41.90
22795;DHT22;11564;50.920;11.612;2023-06-04T13:13:43;27.00;41.20
22795;DHT22;11564;50.920;11.612;2023-06-04T13:16:09;27.80;40.90
22795;DHT22;11564;50.920;11.612;2023-06-04T13:18:35;29.70;37.40
22795;DHT22;11564;50.920;11.612;2023-06-04T13:21:01;31.70;36.10
22795;DHT22;11564;50.920;11.612;2023-06-04T13:23:26;33.90;32.30
22795;DHT22;11564;50.920;11.612;2023-06-04T13:25:52;35.30;30.30
22795;DHT22;11564;50.920;11.612;2023-06-04T13:28:18;37.90;28.80
22795;DHT22;11564;50.920;11.612;2023-06-04T13:30:43;39.90;28.70
22795;DHT22;11564;50.920;11.612;2023-06-04T13:33:09;40.90;27.50
22795;DHT22;11564;50.920;11.612;2023-06-04T13:35:35;41.80;25.70
22795;DHT22;11564;50.920;11.612;2023-06-04T13:38:03;43.10;25.20
22795;DHT22;11564;50.920;11.612;2023-06-04T13:40:29;43.40;24.80
22795;DHT22;11564;50.920;11.612;2023-06-04T13:42:55;46.00;24.30
22795;DHT22;11564;50.920;11.612;2023-06-04T13:45:21;46.10;24.20
22795;DHT22;11564;50.920;11.612;2023-06-04T13:47:47;46.00;23.90
22795;DHT22;11564;50.920;11.612;2023-06-04T13:50:16;45.90;24.40
22795;DHT22;11564;50.920;11.612;2023-06-04T13:52:43;46.50;24.30
22795;DHT22;11564;50.920;11.612;2023-06-04T13:55:09;47.80;23.70
22795;DHT22;11564;50.920;11.612;2023-06-04T13:57:35;47.70;23.70
22795;DHT22;11564;50.920;11.612;2023-06-04T14:00:01;46.00;23.50
22795;DHT22;11564;50.920;11.612;2023-06-04T14:02:26;46.30;23.70
22795;DHT22;11564;50.920;11.612;2023-06-04T14:04:53;45.90;24.00
22795;DHT22;11564;50.920;11.612;2023-06-04T14:07:19;46.10;24.00
22795;DHT22;11564;50.920;11.612;2023-06-04T14:09:45;45.70;23.20
22795;DHT22;11564;50.920;11.612;2023-06-04T14:12:10;47.40;23.90
22795;DHT22;11564;50.920;11.612;2023-06-04T14:14:36;47.30;23.40
22795;DHT22;11564;50.920;11.612;2023-06-04T14:17:05;48.60;22.80
22795;DHT22;11564;50.920;11.612;2023-06-04T14:19:34;48.40;22.50
22795;DHT22;11564;50.920;11.612;2023-06-04T14:22:01;49.40;22.60
22795;DHT22;11564;50.920;11.612;2023-06-04T14:24:27;49.00;22.00
22795;DHT22;11564;50.920;11.612;2023-06-04T14:26:52;49.70;21.80
22795;DHT22;11564;50.920;11.612;2023-06-04T14:29:18;48.80;21.80
22795;DHT22;11564;50.920;11.612;2023-06-04T14:31:43;48.90;22.40
22795;DHT22;11564;50.920;11.612;2023-06-04T14:34:10;49.00;21.80
22795;DHT22;11564;50.920;11.612;2023-06-04T14:36:36;48.40;22.40
22795;DHT22;11564;50.920;11.612;2023-06-04T14:39:02;48.40;22.20
22795;DHT22;11564;50.920;11.612;2023-06-04T14:41:27;47.20;22.40
22795;DHT22;11564;50.920;11.612;2023-06-04T14:43:53;46.90;22.10
22795;DHT22;11564;50.920;11.612;2023-06-04T14:46:18;47.60;22.60
22795;DHT22;11564;50.920;11.612;2023-06-04T14:48:45;48.30;21.90
22795;DHT22;11564;50.920;11.612;2023-06-04T14:51:11;47.60;21.40
22795;DHT22;11564;50.920;11.612;2023-06-04T14:53:36;47.70;21.10
22795;DHT22;11564;50.920;11.612;2023-06-04T14:56:08;48.10;21.40
22795;DHT22;11564;50.920;11.612;2023-06-04T14:58:33;47.90;21.40
22795;DHT22;11564;50.920;11.612;2023-06-04T15:01:00;48.90;21.60
22795;DHT22;11564;50.920;11.612;2023-06-04T15:03:29;49.40;21.70
22795;DHT22;11564;50.920;11.612;2023-06-04T15:05:54;49.00;21.00
22795;DHT22;11564;50.920;11.612;2023-06-04T15:08:20;48.40;21.20
22795;DHT22;11564;50.920;11.612;2023-06-04T15:10:46;48.90;21.30
22795;DHT22;11564;50.920;11.612;2023-06-04T15:13:11;48.90;21.30
22795;DHT22;11564;50.920;11.612;2023-06-04T15:15:37;50.00;21.70
22795;DHT22;11564;50.920;11.612;2023-06-04T15:18:03;48.50;20.90
22795;DHT22;11564;50.920;11.612;2023-06-04T15:20:28;48.20;21.40
22795;DHT22;11564;50.920;11.612;2023-06-04T15:22:54;47.40;21.00